• Join FlightAware (Why Join?)
  • Login
  • US Flag 
09:49AM EDT


 

Airport Tracker/Info


-or-


 

Live Flight TrackerFlight Track Log ✈ N762NC ✈ 17-Aug-2013 ✈ KATL - KBNA

Flight Track Log - Related Links

Times and Time Zones

All times are in EDT time to prevent confusion due to time zone crossing. See the N762NC flight status page for this flight to view local times or setup timezone preferences in your user account.

Time Position Orientation Groundspeed Altitude Reporting Facility
EDT Latitude Longitude Course Direction KTS MPH feet Rate Location/Type
08:38AM 33.6667 -84.3500 328° Northwest 219 252 3,300  Level Atlanta TRACON
08:39AM 33.7167 -84.2833 48° Northeast 284 327 5,500 2,340 Climbing Atlanta TRACON
08:40AM 33.9333 -84.4978 349° North  Level FlightAware Approximate
08:40AM 33.7833 -84.3000 348° North 292 336 8,000  Level Atlanta TRACON
08:41AM 34.0322 -84.5212 349° North  Level FlightAware Approximate
08:42AM 34.1256 -84.5454 347° North  Level FlightAware Approximate
08:42AM 33.9544 -84.4294 328° Northwest 329 379 11,300  Level Atlanta Center
08:43AM 34.2206 -84.5823 328° Northwest  Level FlightAware Approximate
08:43AM 34.0375 -84.5050 323° Northwest 368 423 14,200  Level Atlanta Center
08:44AM 34.1144 -84.5681 326° Northwest 373 429 16,200 1,800 Climbing Atlanta Center
08:45AM 34.2206 -84.6417 330° Northwest 387 445 17,900 1,920 Climbing Atlanta Center
08:46AM 34.3206 -84.7078 331° Northwest 404 465 20,100 1,980 Climbing Atlanta Center
08:47AM 34.4181 -84.7817 328° Northwest 404 465 21,900 1,560 Climbing Atlanta Center
08:48AM 34.5178 -84.8556 329° Northwest 414 476 23,300 1,200 Climbing Atlanta Center
08:49AM 34.6300 -84.9247 333° Northwest 436 502 24,400 1,020 Climbing Atlanta Center
08:50AM 34.7256 -84.9942 329° Northwest 443 510 25,400 780 Climbing Atlanta Center
08:51AM 34.8292 -85.0864 324° Northwest 455 524 26,000 300 Climbing Atlanta Center
08:52AM 34.9392 -85.1664 329° Northwest 466 536 26,000  Level Atlanta Center
08:53AM 35.0467 -85.2514 327° Northwest 466 536 26,000 -120 Level Atlanta Center
08:54AM 35.1292 -85.3619 312° West 450 518 25,800 -780 Descending Atlanta Center
08:55AM 35.2175 -85.4803 312° West 437 503 24,500 -840 Descending Atlanta Center
08:57AM 35.3064 -85.6094 310° West 425 489 24,000 -660 Descending Memphis Center
08:58AM 35.3853 -85.7094 314° West 418 481 23,100 -1,320 Descending Memphis Center
08:59AM 35.4642 -85.8094 314° West 412 474 21,400 -1,800 Descending Memphis Center
09:00AM 35.5431 -85.9175 312° West 412 474 19,600 -2,040 Descending Memphis Center
09:01AM 35.6197 -86.0181 313° West 412 474 17,400 -2,520 Descending Memphis Center
09:02AM 35.6981 -86.1136 315° West 405 466 14,600 -2,880 Descending Memphis Center
09:03AM 35.7808 -86.2167 315° West 393 452 11,700 -1,920 Descending Memphis Center
09:04AM 35.8461 -86.3031 313° West 367 422 10,800 -1,080 Descending Memphis Center
09:05AM 35.9069 -86.3744 316° Northwest 329 379 9,600 -1,620 Descending Memphis Center
09:06AM 35.9614 -86.4461 313° West 299 344 7,700 -1,740 Descending Memphis Center
09:07AM 36.0075 -86.5261 305° West 292 336 6,200 -1,260 Descending Memphis Center
09:08AM 36.0717 -86.5719 330° Northwest 264 304 5,200 -960 Descending Memphis Center
09:09AM 36.1458 -86.5453 16° North 247 284 4,300 -1,140 Descending Memphis Center
09:10AM 36.2139 -86.5242 14° North 252 290 3,000 -1,140 Descending Memphis Center
09:11AM 36.2650 -86.5525 336° Northwest 217 250 2,100 -540 Descending Memphis Center
09:12AM 36.2606 -86.6144 265° West 143 165 2,000 -60 Descending Memphis Center
09:13AM 36.2239 -86.6444 213° Southwest 117 135 2,000 -360 Level Memphis Center
09:14AM 36.1786 -86.6619 197° South 149 171 1,400 -660 Descending Memphis Center
09:15AM 36.1414 -86.6767 198° South 157 181 700 -720 Descending Memphis Center